Date,TemperatureHighF,TemperatureAvgF,TemperatureLowF,DewpointHighF,DewpointAvgF,DewpointLowF,HumidityHigh,HumidityAvg,HumidityLow,PressureMaxIn,PressureMinIn,WindSpeedMaxMPH,WindSpeedAvgMPH,GustSpeedMaxMPH,PrecipitationSumIn
2013-1-1,58,32,16,30,18,11,82,60,28,30.08,29.98,7,1,7,0.00
2013-1-2,64,33,14,23,14,6,74,50,19,30.04,29.92,7,1,7,0.00
2013-1-3,52,32,18,16,9,3,66,42,16,30.10,29.96,20,4,20,0.00
2013-1-4,64,33,14,19,9,1,71,43,13,30.13,30.03,5,1,5,0.00
2013-1-5,68,34,14,20,10,-1,66,42,11,30.16,30.06,6,1,6,0.00
2013-1-6,58,36,22,23,13,9,68,43,17,30.07,29.81,18,3,18,0.00
2013-1-7,67,36,22,26,17,10,72,50,16,29.89,29.77,7,1,7,0.00
2013-1-8,72,41,25,21,16,10,56,39,13,30.06,29.85,3,1,3,0.00
2013-1-9,74,46,24,30,20,12,73,40,16,30.13,29.93,4,1,6,0.00
2013-1-10,53,41,30,28,19,14,67,42,30,29.93,29.63,21,4,21,0.00
2013-1-11,46,28,16,19,10,-9,68,52,11,29.85,29.69,14,6,14,0.00
2013-1-12,48,25,11,18,4,-1,70,44,17,29.88,29.79,9,2,9,0.00
2013-1-13,16,13,11,2,0,-1,58,57,52,29.87,29.87,4,1,4,0.00
2013-1-15,56,37,24,9,4,-1,47,27,14,30.19,30.07,0,0,0,0.00
2013-1-16,71,30,16,25,10,3,64,47,17,30.21,30.10,0,0,0,0.00
2013-1-17,73,38,19,24,15,9,69,44,16,30.20,30.09,0,0,0,0.00
2013-1-18,73,38,19,26,16,9,69,45,16,30.18,30.05,0,0,0,0.00
2013-1-19,79,37,20,27,16,9,71,47,12,30.19,30.08,0,0,0,0.00
2013-1-20,76,39,18,24,11,2,68,40,10,30.14,30.00,0,0,0,0.00
2013-1-21,78,40,20,22,9,-1,60,33,7,30.11,30.01,0,0,0,0.00
2013-1-22,80,42,20,20,11,2,55,34,10,30.15,30.06,0,0,0,0.00
2013-1-23,76,44,25,24,17,10,58,37,15,30.17,30.08,0,0,0,0.00
2013-1-24,53,46,41,44,34,21,87,64,40,30.15,30.07,0,0,0,0.11
2013-1-25,66,50,41,52,44,38,92,83,60,30.12,29.96,0,0,0,0.29
2013-1-26,51,49,46,48,46,44,92,90,85,29.97,29.78,0,0,0,1.05
2013-1-27,54,47,42,46,42,35,92,82,66,29.89,29.78,0,0,0,0.16
2013-1-28,42,35,22,37,29,18,90,79,57,29.85,29.73,0,0,0,0.10
2013-1-29,48,32,18,33,22,14,85,68,39,30.04,29.84,0,0,0,0.08
2013-1-30,70,39,25,38,26,20,83,62,30,30.16,30.04,0,0,0,0.00
2013-1-31,73,44,27,40,29,23,85,59,24,30.12,30.03,0,0,0,0.00
2013-2-1,74,43,27,36,26,22,82,58,18,30.14,30.05,0,0,0,0.00
2013-2-2,73,48,29,36,27,21,77,49,16,30.19,30.08,0,0,0,0.00
2013-2-3,56,45,38,41,35,28,84,70,55,30.10,29.92,0,0,0,0.00
2013-2-4,80,47,30,42,31,25,88,61,21,30.00,29.91,0,0,0,0.00
2013-2-5,75,46,29,36,29,18,82,57,16,29.98,29.87,0,0,0,0.00
2013-2-6,62,45,34,41,32,27,84,62,33,29.97,29.84,0,0,0,0.00
2013-2-7,69,46,28,38,30,23,84,56,25,30.02,29.85,0,0,0,0.00
2013-2-8,51,42,33,33,24,11,75,51,24,29.85,29.65,0,0,0,0.00
2013-2-9,37,31,26,29,25,21,88,80,69,29.84,29.61,0,0,0,0.10
2013-2-10,40,31,22,29,24,16,86,74,60,29.85,29.78,0,0,0,0.00
2013-2-11,56,31,24,35,23,15,89,75,29,29.99,29.83,0,0,0,0.04
2013-2-12,63,32,19,27,18,12,77,59,23,30.09,29.97,0,0,0,0.00
2013-2-13,70,42,22,30,23,14,73,50,22,30.07,29.97,0,0,0,0.00
2013-2-14,69,40,26,32,24,19,77,58,19,30.04,29.98,0,0,0,0.00
2013-2-25,26,25,25,10,9,9,51,50,48,29.89,29.88,0,0,0,0.00
2013-2-26,62,38,18,19,9,-2,68,38,10,30.00,29.85,0,0,0,0.00
2013-2-27,69,42,16,14,4,-3,54,23,7,30.12,30.01,0,0,0,0.00
2013-2-28,74,43,22,14,5,0,41,23,6,30.24,30.11,0,0,0,0.00
2013-3-1,85,42,27,29,14,6,47,35,12,30.26,30.14,0,0,0,0.00
2013-3-2,83,52,29,29,23,18,66,38,11,30.24,30.05,0,0,0,0.00
2013-3-3,65,48,35,30,23,20,63,39,19,30.05,29.86,0,0,0,0.00
2013-3-4,81,54,38,33,28,22,63,39,16,30.02,29.82,0,0,0,0.00
2013-3-5,67,47,29,35,26,20,79,49,22,30.06,29.95,0,0,0,0.00
2013-3-6,67,51,34,33,25,18,64,40,16,29.97,29.85,0,0,0,0.00
2013-3-7,65,54,34,28,23,19,61,33,18,29.87,29.80,0,0,0,0.00
2013-3-8,50,40,32,40,32,26,90,75,40,29.80,29.64,0,0,0,0.21
2013-3-9,44,36,33,36,32,28,88,84,75,29.97,29.76,0,0,0,0.01
2013-3-10,73,46,30,36,29,23,90,58,21,30.09,29.96,0,0,0,0.00
2013-3-11,76,42,27,33,25,20,77,57,15,30.09,29.97,0,0,0,0.00
2013-3-12,89,55,32,34,28,22,67,41,13,30.08,30.00,0,0,0,0.00
2013-3-13,87,57,34,35,28,24,73,41,11,30.17,30.06,0,0,0,0.00
2013-3-14,94,60,36,34,28,24,64,36,8,30.17,30.05,0,0,0,0.00
2013-3-15,82,60,39,36,27,18,66,35,10,30.07,29.92,0,0,0,0.00
2013-3-16,76,57,44,37,28,20,57,37,13,29.92,29.77,0,0,0,0.00
2013-3-17,82,57,38,34,20,2,67,30,3,29.87,29.76,0,0,0,0.00
2013-3-18,81,58,35,23,17,6,40,23,11,29.94,29.86,0,0,0,0.00
2013-3-19,82,60,46,35,25,18,48,30,11,30.03,29.88,0,0,0,0.00
2013-3-20,70,50,40,36,28,24,64,45,21,30.02,29.81,0,0,0,0.00
2013-3-21,87,62,42,39,21,-1,55,24,3,29.81,29.71,0,0,0,0.00
2013-3-22,80,52,32,23,11,-10,42,21,6,29.78,29.68,0,0,0,0.00
2013-3-23,77,50,34,16,3,-10,28,14,2,29.96,29.77,0,0,0,0.00
2013-3-24,78,51,27,17,6,-3,32,18,7,29.97,29.84,0,0,0,0.00
2013-3-25,81,53,29,19,12,2,41,21,9,29.98,29.88,0,0,0,0.00
2013-3-26,72,53,37,24,16,13,41,26,13,29.93,29.83,0,0,0,0.00
2013-3-27,71,55,38,28,18,15,44,26,13,29.94,29.85,0,0,0,0.00
2013-3-28,74,56,35,30,22,16,51,29,15,30.03,29.93,0,0,0,0.00
2013-3-29,90,61,37,33,25,20,55,30,11,30.07,29.98,0,0,0,0.00
2013-3-30,75,56,43,32,26,20,45,33,18,30.05,29.97,0,0,0,0.00
2013-3-31,82,64,39,36,28,22,62,30,15,30.00,29.90,0,0,0,0.00
2013-4-1,69,55,41,35,25,13,66,36,13,29.94,29.87,0,0,0,0.00
2013-4-2,76,48,32,31,21,15,55,38,13,29.94,29.84,0,0,0,0.00
2013-4-3,89,60,36,34,25,13,61,31,8,30.02,29.94,0,0,0,0.00
2013-4-4,83,60,38,31,23,20,50,28,11,30.05,29.95,0,0,0,0.00
2013-4-5,76,63,49,33,25,18,39,25,12,29.94,29.85,0,0,0,0.00
2013-4-6,82,59,40,35,27,24,55,33,15,29.95,29.84,0,0,0,0.00
2013-4-7,78,58,38,34,27,23,56,34,16,29.89,29.72,0,0,0,0.00
2013-4-8,58,52,41,38,30,19,67,44,25,29.71,29.43,0,0,0,0.00
2013-4-9,62,48,39,34,26,18,79,47,22,29.83,29.49,0,0,0,0.00
2013-4-10,79,53,34,26,18,9,54,30,10,29.95,29.84,0,0,0,0.00
2013-4-11,72,54,34,26,17,13,47,27,13,29.94,29.76,0,0,0,0.00
2013-4-12,86,60,35,28,20,13,46,25,7,29.85,29.74,0,0,0,0.00
2013-4-13,76,60,38,30,23,18,45,26,13,29.84,29.70,0,0,0,0.00
2013-4-14,74,63,50,34,28,23,40,28,16,29.73,29.64,0,0,0,0.00
2013-4-15,70,59,48,39,34,30,59,40,25,29.70,29.65,0,0,0,0.00
2013-4-16,62,54,41,39,27,13,67,39,16,29.73,29.65,0,0,0,0.00
2013-4-17,70,50,33,29,16,5,69,32,10,29.99,29.73,0,0,0,0.00
2013-4-18,80,52,32,19,9,0,35,19,6,30.08,29.96,0,0,0,0.00
2013-4-19,78,55,33,17,10,3,31,18,6,30.11,29.92,0,0,0,0.00
2013-4-20,89,61,36,26,14,1,33,16,3,29.98,29.88,0,0,0,0.00
2013-4-21,85,62,37,23,15,7,31,17,7,30.02,29.93,0,0,0,0.00
2013-4-22,82,65,45,26,19,12,32,19,11,29.96,29.81,0,0,0,0.00
2013-4-23,92,66,45,28,17,-8,36,15,2,29.93,29.79,0,0,0,0.00
2013-4-24,81,58,34,19,9,-10,24,15,10,29.92,29.84,0,0,0,0.00
2013-4-25,70,58,42,33,24,17,39,28,17,30.00,29.86,0,0,0,0.00
2013-4-26,89,61,38,37,26,21,60,32,10,30.08,29.98,0,0,0,0.00
2013-4-27,99,68,43,33,20,5,36,17,3,30.09,29.96,0,0,0,0.00
2013-4-28,98,70,44,32,18,7,26,13,3,29.99,29.83,0,0,0,0.00
2013-4-29,97,72,46,32,21,14,32,15,5,29.88,29.75,0,0,0,0.00
2013-4-30,84,73,56,30,19,12,28,13,7,29.82,29.75,0,0,0,0.00
2013-5-1,95,71,48,30,18,-2,27,13,3,30.11,29.82,0,0,0,0.00
2013-5-2,84,61,42,22,7,-7,19,10,3,30.20,30.09,0,0,0,0.00
2013-5-3,93,62,34,28,12,-2,26,13,2,30.10,29.85,0,0,0,0.00
2013-5-4,82,64,39,20,15,8,29,16,7,29.86,29.73,0,0,0,0.00
2013-5-5,76,64,55,27,22,15,30,21,13,29.88,29.78,0,0,0,0.00
2013-5-6,69,59,50,39,32,19,53,37,23,29.93,29.84,0,0,0,0.00
2013-5-7,67,55,42,42,36,29,77,53,26,29.92,29.83,0,0,0,0.03
2013-5-8,73,56,35,43,32,25,84,47,18,29.97,29.90,0,0,0,0.01
2013-5-9,82,59,43,39,32,24,57,38,18,30.01,29.92,0,0,0,0.00
2013-5-10,91,62,39,42,34,25,73,43,12,30.08,29.96,0,0,0,0.00
2013-5-11,93,67,44,42,32,23,68,34,10,30.13,30.06,0,0,0,0.00
2013-5-12,56,52,47,25,24,23,40,34,30,30.13,30.11,0,0,0,0.00
2013-5-13,65,64,62,26,25,24,24,23,22,30.00,29.99,0,0,0,0.00
2013-5-14,91,74,52,37,28,23,37,21,10,30.01,29.89,0,0,0,0.00
2013-5-15,85,73,57,28,19,8,25,12,6,29.97,29.88,0,0,0,0.00
2013-5-16,85,71,54,33,21,11,25,16,8,29.92,29.82,0,0,0,0.00
2013-5-17,78,68,55,35,27,19,36,23,12,29.90,29.83,0,0,0,0.00
2013-5-18,81,66,49,39,30,24,52,29,15,29.92,29.85,0,0,0,0.00
2013-5-19,83,70,51,35,26,19,43,23,11,29.91,29.81,0,0,0,0.00
2013-5-20,78,66,46,35,29,20,43,26,16,29.96,29.89,0,0,0,0.61
2013-5-21,86,73,61,35,25,13,19,17,16,29.97,29.82,0,0,0,0.00
2013-5-22,82,74,64,33,24,16,19,16,15,29.82,29.74,0,0,0,0.00
2013-5-23,82,73,64,32,23,14,20,16,13,29.87,29.76,0,0,0,0.08
2013-5-24,79,70,59,29,19,7,19,15,13,29.94,29.87,0,0,0,0.00
2013-5-25,69,64,59,15,11,8,15,13,13,29.93,29.90,0,0,0,0.00